Time;durP1;ratioP1;P1;durP2;ratioP2;P2;SDS_P1;SDS_P2;PMS_P1;PMS_P2;Temp;Humidity;BMP_temperature;BMP_pressure;BME280_temperature;BME280_humidity;BME280_pressure;Samples;Min_cycle;Max_cycle;Signal;HPM_P1;HPM_P2
2023/12/15 00:01:33;;;;;;;1.30;1.00;;;17.60;62.30;;;;;;4963590;28;20451;-81
2023/12/15 00:04:01;;;;;;;1.47;1.20;;;17.60;61.40;;;;;;4969814;28;20499;-82
2023/12/15 00:06:30;;;;;;;1.40;1.30;;;17.50;61.30;;;;;;4970659;28;20459;-82
2023/12/15 00:08:58;;;;;;;1.47;1.37;;;17.10;61.80;;;;;;4962513;28;21010;-81
2023/12/15 00:11:27;;;;;;;1.73;1.30;;;17.10;63.60;;;;;;4959172;28;20488;-81
2023/12/15 00:13:56;;;;;;;1.03;0.93;;;16.90;63.00;;;;;;4955231;28;20454;-81
2023/12/15 00:16:24;;;;;;;1.60;1.50;;;16.90;62.70;;;;;;4966501;28;20545;-88
2023/12/15 00:18:52;;;;;;;1.37;1.27;;;16.90;62.70;;;;;;4957384;28;20479;-81
2023/12/15 00:21:20;;;;;;;2.20;1.53;;;16.70;63.20;;;;;;4962461;28;20573;-82
2023/12/15 00:23:49;;;;;;;1.93;1.80;;;16.60;62.90;;;;;;4969168;28;20463;-81
2023/12/15 00:26:17;;;;;;;2.10;1.70;;;16.70;62.40;;;;;;4968224;28;20505;-84
2023/12/15 00:28:46;;;;;;;1.03;0.97;;;16.60;62.60;;;;;;4956391;28;20463;-81
2023/12/15 00:31:15;;;;;;;1.67;1.57;;;16.60;63.10;;;;;;4961206;28;20918;-81
2023/12/15 00:33:43;;;;;;;1.30;1.20;;;16.40;62.10;;;;;;4969506;28;20799;-82
2023/12/15 00:36:11;;;;;;;2.33;2.00;;;16.00;63.10;;;;;;4963295;28;20461;-81
2023/12/15 00:38:40;;;;;;;1.70;1.60;;;15.80;63.90;;;;;;4948501;28;20464;-81
2023/12/15 00:41:08;;;;;;;2.30;2.00;;;15.50;64.50;;;;;;4949918;28;20508;-81
2023/12/15 00:43:36;;;;;;;2.07;1.87;;;15.00;64.50;;;;;;4965408;28;20516;-80
2023/12/15 00:46:06;;;;;;;2.40;2.20;;;14.70;67.10;;;;;;4965629;28;21037;-87
2023/12/15 00:48:34;;;;;;;1.93;1.77;;;14.40;67.00;;;;;;4965653;28;20470;-84
2023/12/15 00:51:02;;;;;;;2.57;2.00;;;14.20;67.50;;;;;;4959837;28;20534;-81
2023/12/15 00:53:32;;;;;;;2.53;2.30;;;14.00;67.70;;;;;;4965121;28;20510;-82
2023/12/15 00:56:01;;;;;;;2.30;1.70;;;13.90;68.00;;;;;;4966351;28;20479;-81
2023/12/15 00:58:29;;;;;;;2.00;1.77;;;14.00;67.90;;;;;;4958656;28;20466;-81
2023/12/15 01:01:00;;;;;;;2.80;2.47;;;13.80;68.30;;;;;;4967372;28;21071;-86
2023/12/15 01:03:31;;;;;;;3.10;2.80;;;13.80;67.90;;;;;;4968418;28;20451;-80
2023/12/15 01:06:00;;;;;;;3.83;2.53;;;13.80;67.90;;;;;;4971358;28;20471;-87
2023/12/15 01:08:28;;;;;;;2.60;2.40;;;13.90;67.80;;;;;;4950899;28;20465;-81
2023/12/15 01:10:56;;;;;;;2.87;1.97;;;13.90;67.50;;;;;;4954117;28;20489;-89
2023/12/15 01:13:24;;;;;;;2.00;1.80;;;14.30;68.40;;;;;;4950178;28;20456;-83
2023/12/15 01:15:53;;;;;;;3.10;2.80;;;14.70;68.40;;;;;;4966456;28;20495;-81
2023/12/15 01:18:21;;;;;;;2.60;2.30;;;15.30;65.10;;;;;;4954575;28;20460;-86
2023/12/15 01:20:50;;;;;;;2.10;2.00;;;15.50;65.20;;;;;;4965589;28;20569;-82
2023/12/15 01:23:18;;;;;;;1.90;1.70;;;15.80;64.80;;;;;;4965013;28;20471;-82
2023/12/15 01:25:47;;;;;;;1.30;1.20;;;16.30;64.20;;;;;;4963921;28;20451;-83
2023/12/15 01:28:15;;;;;;;1.47;1.33;;;16.70;64.50;;;;;;4965200;28;20836;-81
2023/12/15 01:30:43;;;;;;;2.43;2.23;;;17.00;63.70;;;;;;4966449;28;20529;-84
2023/12/15 01:33:11;;;;;;;2.50;2.30;;;17.20;61.80;;;;;;4965671;28;20461;-81
2023/12/15 01:35:40;;;;;;;1.73;1.50;;;17.20;60.10;;;;;;4958497;28;20558;-82
2023/12/15 01:38:09;;;;;;;1.77;1.50;;;17.30;61.40;;;;;;4955021;28;20827;-81
2023/12/15 01:40:38;;;;;;;2.80;2.37;;;17.30;60.90;;;;;;4952867;28;20462;-82
2023/12/15 01:43:06;;;;;;;2.40;2.20;;;17.30;59.40;;;;;;4949247;28;20475;-81
2023/12/15 01:45:34;;;;;;;1.70;1.60;;;16.80;61.10;;;;;;4953529;29;20443;-82
2023/12/15 01:48:03;;;;;;;2.63;2.43;;;16.70;61.90;;;;;;4954004;28;20467;-81
2023/12/15 01:50:31;;;;;;;3.27;2.93;;;16.40;61.30;;;;;;4952165;28;20507;-81
2023/12/15 01:52:59;;;;;;;3.20;2.90;;;16.20;60.70;;;;;;4943535;28;20456;-81
2023/12/15 01:55:29;;;;;;;3.33;3.03;;;15.60;61.90;;;;;;4948227;28;20460;-81
2023/12/15 01:57:57;;;;;;;2.43;2.23;;;15.20;63.90;;;;;;4952989;29;20436;-82
2023/12/15 02:00:26;;;;;;;3.40;3.10;;;14.70;64.60;;;;;;4950232;28;20464;-82
2023/12/15 02:02:54;;;;;;;4.70;3.60;;;14.40;65.50;;;;;;4955177;28;21322;-82
2023/12/15 02:05:22;;;;;;;4.17;3.80;;;14.10;65.90;;;;;;4951458;28;20487;-82
2023/12/15 02:07:51;;;;;;;3.40;3.10;;;13.90;66.20;;;;;;4951211;28;20464;-81
2023/12/15 02:10:19;;;;;;;3.97;3.10;;;13.70;67.10;;;;;;4951480;28;20970;-80
2023/12/15 02:12:49;;;;;;;2.80;2.50;;;13.60;67.70;;;;;;4952240;28;20538;-83
2023/12/15 02:15:17;;;;;;;3.43;3.10;;;13.60;68.00;;;;;;4950189;28;21193;-84
2023/12/15 02:17:45;;;;;;;3.93;2.97;;;13.50;67.90;;;;;;4943474;28;20464;-82
2023/12/15 02:20:14;;;;;;;2.97;2.77;;;13.40;68.50;;;;;;4944298;28;20459;-82
2023/12/15 02:22:43;;;;;;;3.97;3.57;;;13.50;68.40;;;;;;4951803;28;20511;-80
2023/12/15 02:25:11;;;;;;;3.50;3.20;;;13.50;68.70;;;;;;4951239;28;20455;-81
2023/12/15 02:27:40;;;;;;;3.33;2.90;;;13.60;68.10;;;;;;4951966;28;20491;-80
2023/12/15 02:30:09;;;;;;;3.17;2.77;;;13.60;68.60;;;;;;4951084;28;20452;-81
2023/12/15 02:32:37;;;;;;;3.47;3.17;;;13.60;68.30;;;;;;4951857;28;20549;-83
2023/12/15 02:35:06;;;;;;;3.93;2.93;;;13.50;68.70;;;;;;4948311;28;20456;-81
2023/12/15 02:37:34;;;;;;;2.83;2.60;;;13.40;69.10;;;;;;4949812;28;20499;-81
2023/12/15 02:40:06;;;;;;;5.10;3.43;;;13.40;69.10;;;;;;4944888;28;20853;-81
2023/12/15 02:42:34;;;;;;;5.20;3.60;;;13.50;68.70;;;;;;4947161;28;20556;-81
2023/12/15 02:45:03;;;;;;;3.13;2.83;;;13.60;68.60;;;;;;4950092;28;20459;-81
2023/12/15 02:47:31;;;;;;;3.30;3.00;;;13.80;68.40;;;;;;4951426;28;20964;-81
2023/12/15 02:49:59;;;;;;;2.93;2.23;;;13.80;68.30;;;;;;4939775;28;20518;-80
2023/12/15 02:52:28;;;;;;;2.60;2.40;;;13.80;68.20;;;;;;4939112;28;20480;-82
2023/12/15 02:54:56;;;;;;;2.90;2.60;;;13.80;68.50;;;;;;4950175;28;20456;-80
2023/12/15 02:57:25;;;;;;;2.77;2.57;;;13.70;68.60;;;;;;4950472;29;20542;-82
2023/12/15 02:59:54;;;;;;;3.07;2.20;;;13.70;68.90;;;;;;4950499;28;20940;-80
2023/12/15 03:02:22;;;;;;;2.07;1.87;;;13.70;69.00;;;;;;4954237;28;20514;-81
2023/12/15 03:04:50;;;;;;;3.00;2.20;;;13.80;68.60;;;;;;4949243;28;21467;-81
2023/12/15 03:07:18;;;;;;;2.50;2.07;;;13.70;68.10;;;;;;4948717;28;20471;-81
2023/12/15 03:09:46;;;;;;;4.20;2.80;;;13.60;69.10;;;;;;4951023;28;20471;-81
2023/12/15 03:12:14;;;;;;;2.90;2.00;;;13.70;68.50;;;;;;4957804;28;20562;-81
2023/12/15 03:14:44;;;;;;;3.47;2.40;;;13.70;69.20;;;;;;4951321;28;20476;-84
2023/12/15 03:17:12;;;;;;;3.47;2.90;;;13.80;68.40;;;;;;4937761;28;20875;-80
2023/12/15 03:19:41;;;;;;;2.73;2.53;;;13.90;68.30;;;;;;4952479;28;20947;-81
2023/12/15 03:22:09;;;;;;;3.00;2.63;;;13.80;67.90;;;;;;4955240;28;20467;-81
2023/12/15 03:24:37;;;;;;;3.00;2.37;;;13.80;68.30;;;;;;4953738;28;20913;-83
2023/12/15 03:27:06;;;;;;;2.93;2.63;;;13.90;68.20;;;;;;4947688;29;20452;-84
2023/12/15 03:29:34;;;;;;;2.67;2.47;;;13.90;67.90;;;;;;4953930;28;20464;-81
2023/12/15 03:32:05;;;;;;;3.63;3.33;;;13.90;67.60;;;;;;4954835;28;20508;-84
2023/12/15 03:34:33;;;;;;;3.30;2.93;;;13.90;68.00;;;;;;4957397;28;20455;-86
2023/12/15 03:37:01;;;;;;;2.67;2.37;;;13.80;67.60;;;;;;4955078;28;20454;-80
2023/12/15 03:39:29;;;;;;;2.63;2.00;;;13.70;68.20;;;;;;4962418;28;20455;-81
2023/12/15 03:41:58;;;;;;;2.53;2.33;;;13.60;68.90;;;;;;4951605;28;20527;-81
2023/12/15 03:44:26;;;;;;;2.60;2.37;;;13.60;68.90;;;;;;4955357;28;20531;-84
2023/12/15 03:46:54;;;;;;;2.97;2.57;;;13.70;68.30;;;;;;4954903;28;20813;-81
2023/12/15 03:49:23;;;;;;;3.93;3.17;;;13.70;68.20;;;;;;4955178;28;20462;-81
2023/12/15 03:51:52;;;;;;;2.80;2.30;;;13.60;68.50;;;;;;4951975;28;20472;-81
2023/12/15 03:54:20;;;;;;;2.77;2.20;;;13.60;68.80;;;;;;4936125;29;20508;-81
2023/12/15 03:56:55;;;;;;;3.60;2.73;;;13.70;68.20;;;;;;4961096;28;20456;-81
2023/12/15 03:59:24;;;;;;;2.90;2.57;;;13.70;68.40;;;;;;4943934;28;20467;-81
2023/12/15 04:01:52;;;;;;;4.00;3.10;;;13.70;68.40;;;;;;4951189;28;21248;-85
2023/12/15 04:04:22;;;;;;;3.67;2.90;;;13.70;68.40;;;;;;4957169;28;20459;-80
2023/12/15 04:06:50;;;;;;;3.40;2.17;;;13.70;68.40;;;;;;4954110;28;21003;-83
2023/12/15 04:09:19;;;;;;;2.20;1.97;;;13.70;68.80;;;;;;4942514;28;20480;-82
2023/12/15 04:11:47;;;;;;;3.70;3.37;;;13.70;68.60;;;;;;4950029;28;20942;-81
2023/12/15 04:14:16;;;;;;;5.33;3.90;;;13.60;68.20;;;;;;4950984;28;20599;-81
2023/12/15 04:16:45;;;;;;;3.47;3.17;;;13.50;68.70;;;;;;4953901;28;20452;-84
2023/12/15 04:19:13;;;;;;;4.10;3.70;;;13.60;68.40;;;;;;4950585;28;20535;-86
2023/12/15 04:21:43;;;;;;;2.83;2.33;;;13.70;68.00;;;;;;4950078;28;20474;-83
2023/12/15 04:24:11;;;;;;;2.97;2.37;;;13.60;68.40;;;;;;4945821;28;20463;-81
2023/12/15 04:26:39;;;;;;;2.27;2.07;;;13.80;67.80;;;;;;4954439;29;20460;-81
2023/12/15 04:29:07;;;;;;;2.90;2.50;;;13.80;67.90;;;;;;4953252;28;20471;-82
2023/12/15 04:31:35;;;;;;;2.30;2.10;;;13.60;67.20;;;;;;4952928;28;20460;-81
2023/12/15 04:34:03;;;;;;;2.93;2.60;;;13.50;67.80;;;;;;4953713;28;20885;-84
2023/12/15 04:36:32;;;;;;;2.20;1.93;;;13.30;68.00;;;;;;4940824;28;20460;-80
2023/12/15 04:39:02;;;;;;;1.83;1.73;;;13.30;69.10;;;;;;4961289;28;21054;-80
2023/12/15 04:41:31;;;;;;;2.97;2.33;;;13.40;68.20;;;;;;4949152;28;20467;-81
2023/12/15 04:43:59;;;;;;;2.50;2.20;;;13.40;68.40;;;;;;4937151;28;20820;-83
2023/12/15 04:46:29;;;;;;;1.87;1.77;;;13.40;68.20;;;;;;4951705;28;20467;-82
2023/12/15 04:48:59;;;;;;;1.83;1.73;;;13.30;68.70;;;;;;4955858;28;20460;-80
2023/12/15 04:51:27;;;;;;;3.10;1.60;;;13.50;68.60;;;;;;4951711;28;20487;-83
2023/12/15 04:53:55;;;;;;;2.90;2.17;;;13.60;68.60;;;;;;4938978;28;21069;-80
2023/12/15 04:56:25;;;;;;;2.43;2.23;;;13.50;67.70;;;;;;4952894;29;20467;-87
2023/12/15 04:58:54;;;;;;;5.53;2.30;;;13.30;67.90;;;;;;4950981;28;20455;-80
2023/12/15 05:01:22;;;;;;;4.13;2.30;;;13.30;68.80;;;;;;4953089;28;20704;-80
2023/12/15 05:03:50;;;;;;;3.00;2.37;;;13.40;68.60;;;;;;4946112;28;20488;-81
2023/12/15 05:06:19;;;;;;;3.20;2.60;;;13.50;68.40;;;;;;4950189;28;20955;-80
2023/12/15 05:08:47;;;;;;;3.03;2.30;;;13.40;68.30;;;;;;4943791;28;20476;-84
2023/12/15 05:11:16;;;;;;;2.97;2.70;;;13.40;68.20;;;;;;4949680;28;20454;-80
2023/12/15 05:13:49;;;;;;;2.50;2.30;;;13.40;68.30;;;;;;4949498;28;20486;-81
2023/12/15 05:16:17;;;;;;;2.80;2.33;;;13.50;68.40;;;;;;4946765;28;20455;-84
2023/12/15 05:18:45;;;;;;;2.27;2.07;;;13.60;68.20;;;;;;4947508;28;20483;-80
2023/12/15 05:21:13;;;;;;;3.73;3.43;;;13.60;67.90;;;;;;4945879;28;20459;-81
2023/12/15 05:23:42;;;;;;;3.20;2.90;;;13.60;67.30;;;;;;4946812;28;20507;-81
2023/12/15 05:26:12;;;;;;;2.93;2.67;;;13.40;67.70;;;;;;4936817;28;20504;-82
2023/12/15 05:28:41;;;;;;;3.17;2.73;;;13.40;68.40;;;;;;4946212;28;20475;-81
2023/12/15 05:31:10;;;;;;;3.43;3.13;;;13.50;67.90;;;;;;4951052;28;20486;-80
2023/12/15 05:33:38;;;;;;;3.30;2.60;;;13.50;67.60;;;;;;4954202;28;20509;-85
2023/12/15 05:36:07;;;;;;;2.70;2.47;;;13.70;67.80;;;;;;4951826;28;20459;-82
2023/12/15 05:38:35;;;;;;;3.37;2.80;;;13.80;67.60;;;;;;4946784;28;20480;-82
2023/12/15 05:41:04;;;;;;;2.37;2.20;;;13.80;67.50;;;;;;4955041;28;20997;-80
2023/12/15 05:43:33;;;;;;;10.50;2.43;;;13.80;67.00;;;;;;4951490;28;20467;-80
2023/12/15 05:46:02;;;;;;;3.87;3.30;;;13.90;67.40;;;;;;4951465;28;20466;-81
2023/12/15 05:48:32;;;;;;;1.87;1.77;;;14.00;67.00;;;;;;4952194;28;20513;-86
2023/12/15 05:51:00;;;;;;;4.07;2.40;;;14.10;67.10;;;;;;4944425;28;20461;-83
2023/12/15 05:53:28;;;;;;;3.30;2.97;;;14.10;66.70;;;;;;4950554;28;20471;-85
2023/12/15 05:55:57;;;;;;;3.10;2.80;;;14.20;66.50;;;;;;4942180;28;20460;-83
2023/12/15 05:58:25;;;;;;;3.00;2.70;;;14.30;66.40;;;;;;4949804;28;20471;-81
2023/12/15 06:00:53;;;;;;;2.90;2.40;;;14.30;66.00;;;;;;4944244;28;20527;-82
2023/12/15 06:03:21;;;;;;;2.93;2.70;;;14.30;66.30;;;;;;4954943;28;20514;-81
2023/12/15 06:05:51;;;;;;;2.93;2.70;;;14.20;66.40;;;;;;4953458;28;20982;-84
2023/12/15 06:08:19;;;;;;;3.83;2.13;;;14.30;66.50;;;;;;4950502;28;20523;-81
2023/12/15 06:10:48;;;;;;;3.27;2.20;;;14.30;66.80;;;;;;4945790;28;20864;-84
2023/12/15 06:13:16;;;;;;;5.20;3.20;;;14.40;66.20;;;;;;4943789;28;20575;-85
2023/12/15 06:15:44;;;;;;;3.80;2.83;;;14.40;66.40;;;;;;4944322;28;21047;-82
2023/12/15 06:18:12;;;;;;;3.70;3.40;;;14.40;65.90;;;;;;4945896;28;20451;-81
2023/12/15 06:20:41;;;;;;;3.57;2.90;;;14.30;66.30;;;;;;4941119;28;20478;-80
2023/12/15 06:23:10;;;;;;;3.20;2.83;;;14.30;67.40;;;;;;4947952;28;20464;-81
2023/12/15 06:25:39;;;;;;;3.13;2.60;;;14.20;67.20;;;;;;4940207;29;20829;-82
2023/12/15 06:28:09;;;;;;;4.30;3.10;;;14.10;67.40;;;;;;4946109;29;20491;-84
2023/12/15 06:30:37;;;;;;;4.03;3.63;;;14.00;67.20;;;;;;4944280;28;20478;-85
2023/12/15 06:33:06;;;;;;;2.90;2.47;;;14.00;68.20;;;;;;4953586;28;20544;-81
2023/12/15 06:35:34;;;;;;;2.90;2.13;;;14.00;67.80;;;;;;4944825;28;20465;-82
2023/12/15 06:38:03;;;;;;;2.57;2.37;;;14.10;67.80;;;;;;4936847;29;21232;-81
2023/12/15 06:40:33;;;;;;;3.93;2.80;;;14.20;67.60;;;;;;4949468;28;20459;-81
2023/12/15 06:43:01;;;;;;;3.90;2.83;;;14.20;67.70;;;;;;4952313;29;20957;-82
2023/12/15 06:45:29;;;;;;;2.87;2.57;;;14.10;67.80;;;;;;4952802;29;20427;-81
2023/12/15 06:47:57;;;;;;;3.10;2.67;;;14.10;67.20;;;;;;4956913;28;20517;-87
2023/12/15 06:50:26;;;;;;;2.80;2.50;;;14.10;67.10;;;;;;4951564;29;20527;-81
2023/12/15 06:52:54;;;;;;;1.97;1.77;;;14.10;67.30;;;;;;4952771;28;20455;-83
2023/12/15 06:55:22;;;;;;;3.60;3.30;;;14.10;67.90;;;;;;4954784;29;20467;-84
2023/12/15 06:57:52;;;;;;;4.70;2.80;;;14.20;66.70;;;;;;4955521;29;20518;-81
2023/12/15 07:00:22;;;;;;;2.00;1.90;;;14.10;66.70;;;;;;4953044;28;20829;-81
2023/12/15 07:02:50;;;;;;;3.60;2.63;;;14.10;67.20;;;;;;4955041;28;20455;-81
2023/12/15 07:05:18;;;;;;;1.97;1.60;;;14.10;66.50;;;;;;4950231;28;20479;-81
2023/12/15 07:07:46;;;;;;;3.17;2.87;;;14.10;66.80;;;;;;4957899;28;20451;-81
2023/12/15 07:10:16;;;;;;;2.50;2.30;;;14.10;66.80;;;;;;4956092;28;20456;-84
2023/12/15 07:12:44;;;;;;;2.50;2.30;;;14.10;66.70;;;;;;4946838;29;20456;-80
2023/12/15 07:15:15;;;;;;;3.43;3.10;;;14.10;66.70;;;;;;4936578;29;20551;-81
2023/12/15 07:17:43;;;;;;;3.03;2.47;;;14.10;66.70;;;;;;4936821;29;20914;-81
2023/12/15 07:20:12;;;;;;;2.90;2.20;;;14.00;66.60;;;;;;4940494;28;20463;-80
2023/12/15 07:22:40;;;;;;;3.37;2.60;;;14.00;66.40;;;;;;4954733;28;20472;-80
2023/12/15 07:25:09;;;;;;;3.80;2.73;;;14.00;66.60;;;;;;4940134;28;20526;-80
2023/12/15 07:27:37;;;;;;;4.47;3.30;;;14.00;67.00;;;;;;4945371;28;20463;-85
2023/12/15 07:30:08;;;;;;;5.20;3.03;;;14.00;66.50;;;;;;4936658;29;20437;-84
2023/12/15 07:32:37;;;;;;;2.40;2.20;;;14.00;67.00;;;;;;4955066;29;20507;-81
2023/12/15 07:35:07;;;;;;;2.53;2.33;;;14.10;66.60;;;;;;4955760;29;20474;-86
2023/12/15 07:37:55;;;;;;;3.87;3.57;;;14.10;66.60;;;;;;4950880;29;20533;-80
2023/12/15 07:40:24;;;;;;;2.00;1.90;;;14.10;66.10;;;;;;4955358;28;20434;-82
2023/12/15 07:42:52;;;;;;;3.30;3.00;;;14.00;66.70;;;;;;4953179;29;20490;-80
2023/12/15 07:45:21;;;;;;;2.73;2.53;;;14.00;66.20;;;;;;4949047;28;20495;-85
2023/12/15 07:47:51;;;;;;;3.10;2.83;;;14.10;66.40;;;;;;4950146;28;20463;-87
2023/12/15 07:50:19;;;;;;;3.23;2.93;;;14.10;66.20;;;;;;4966039;28;20546;-83
2023/12/15 07:52:48;;;;;;;3.27;2.50;;;14.20;66.00;;;;;;4955433;28;20451;-82
2023/12/15 07:55:17;;;;;;;2.80;2.60;;;14.30;66.00;;;;;;4954982;28;20478;-81
2023/12/15 07:57:46;;;;;;;3.67;2.60;;;14.30;65.70;;;;;;4955137;29;20494;-80
2023/12/15 08:00:15;;;;;;;3.80;3.20;;;14.30;65.30;;;;;;4953871;28;20887;-81
2023/12/15 08:02:44;;;;;;;2.90;2.70;;;14.20;65.70;;;;;;4958851;28;20439;-80
2023/12/15 08:05:14;;;;;;;3.67;2.87;;;14.20;66.00;;;;;;4973523;28;20542;-81
2023/12/15 08:07:43;;;;;;;3.40;3.10;;;14.20;66.40;;;;;;4964318;28;20436;-81
2023/12/15 08:10:11;;;;;;;2.33;1.93;;;14.30;65.90;;;;;;4954719;28;20920;-80
2023/12/15 08:12:39;;;;;;;3.50;2.53;;;14.30;66.40;;;;;;4951189;28;20465;-81
2023/12/15 08:15:08;;;;;;;2.83;2.40;;;14.30;65.50;;;;;;4948296;28;20558;-82
2023/12/15 08:17:37;;;;;;;3.57;2.57;;;14.30;65.80;;;;;;4955439;28;20436;-82
2023/12/15 08:20:07;;;;;;;3.40;3.00;;;14.30;65.70;;;;;;4954598;29;20444;-83
2023/12/15 08:22:37;;;;;;;2.47;2.20;;;14.30;65.60;;;;;;4954875;28;20451;-81
2023/12/15 08:25:06;;;;;;;3.73;3.43;;;14.20;65.20;;;;;;4954519;28;20439;-83
2023/12/15 08:27:37;;;;;;;4.50;3.90;;;14.20;65.70;;;;;;4954592;28;20948;-80
2023/12/15 08:30:08;;;;;;;9.83;6.90;;;14.20;65.50;;;;;;4953395;29;20879;-81
2023/12/15 08:32:37;;;;;;;11.43;7.67;;;14.10;65.40;;;;;;4950990;28;20465;-81
2023/12/15 08:35:06;;;;;;;11.10;6.70;;;14.00;65.70;;;;;;4954289;29;20873;-82
2023/12/15 08:37:35;;;;;;;10.10;7.27;;;13.90;66.50;;;;;;4954669;29;20435;-84
2023/12/15 08:40:06;;;;;;;11.53;8.20;;;13.90;66.40;;;;;;4953747;29;20440;-80
2023/12/15 08:42:34;;;;;;;6.80;5.63;;;14.00;66.60;;;;;;4954147;29;20829;-81
2023/12/15 08:45:02;;;;;;;7.93;6.90;;;14.10;66.60;;;;;;4954738;28;20471;-80
2023/12/15 08:47:31;;;;;;;5.87;5.07;;;14.20;65.70;;;;;;4954012;28;20439;-82
2023/12/15 08:49:59;;;;;;;6.37;5.77;;;14.30;65.60;;;;;;4959452;28;20459;-81
2023/12/15 08:52:27;;;;;;;6.17;5.60;;;14.20;65.70;;;;;;4954898;29;21452;-82
2023/12/15 08:54:56;;;;;;;6.07;5.20;;;14.30;65.80;;;;;;4952168;29;20484;-81
2023/12/15 08:57:25;;;;;;;5.53;5.00;;;14.30;66.50;;;;;;4953711;28;20471;-82
2023/12/15 08:59:53;;;;;;;6.07;5.53;;;14.30;65.60;;;;;;4954315;28;20456;-81
2023/12/15 09:02:22;;;;;;;6.30;4.87;;;14.40;65.60;;;;;;4968703;28;20951;-82
2023/12/15 09:04:50;;;;;;;6.27;3.90;;;14.40;64.60;;;;;;4973679;28;20447;-81
2023/12/15 09:07:30;;;;;;;4.73;4.13;;;14.40;65.20;;;;;;4969138;28;20495;-85
2023/12/15 09:09:59;;;;;;;3.60;3.30;;;14.40;65.10;;;;;;4947783;28;20460;-81
2023/12/15 09:12:28;;;;;;;3.97;3.00;;;14.40;65.80;;;;;;4954027;29;20444;-84
2023/12/15 09:14:58;;;;;;;5.33;3.47;;;14.50;65.30;;;;;;4953745;28;20549;-84
2023/12/15 09:17:26;;;;;;;3.43;3.13;;;14.40;65.30;;;;;;4953072;28;20452;-80
2023/12/15 09:19:54;;;;;;;4.53;4.10;;;14.40;65.70;;;;;;4966341;28;20466;-80
2023/12/15 09:22:22;;;;;;;4.43;3.80;;;14.40;65.30;;;;;;4955567;28;20965;-82
2023/12/15 09:24:51;;;;;;;5.30;4.87;;;14.30;65.30;;;;;;4952440;28;20849;-81
2023/12/15 09:27:20;;;;;;;5.60;4.97;;;14.30;65.30;;;;;;4951333;28;20481;-80
2023/12/15 09:29:49;;;;;;;4.80;4.30;;;14.30;65.70;;;;;;4953272;28;20502;-85
2023/12/15 09:32:18;;;;;;;4.93;4.20;;;14.30;65.40;;;;;;4947030;29;20471;-81
2023/12/15 09:34:46;;;;;;;6.33;3.50;;;14.20;65.20;;;;;;4951812;28;20544;-80
2023/12/15 09:37:14;;;;;;;4.90;4.40;;;14.10;65.90;;;;;;4953003;29;20447;-80
2023/12/15 09:39:42;;;;;;;3.57;3.23;;;14.00;65.80;;;;;;4952566;29;20436;-83
2023/12/15 09:42:11;;;;;;;5.17;3.80;;;14.10;66.10;;;;;;4949742;28;21569;-80
2023/12/15 09:44:39;;;;;;;6.30;4.90;;;14.30;66.10;;;;;;4953125;28;20519;-80
2023/12/15 09:47:31;;;;;;;3.20;2.87;;;14.30;65.90;;;;;;4943184;28;20466;-81
2023/12/15 09:50:04;;;;;;;5.00;4.50;;;14.40;66.10;;;;;;4946495;28;20456;-81
2023/12/15 09:52:33;;;;;;;5.80;5.27;;;14.50;65.40;;;;;;4952564;28;20535;-82
2023/12/15 09:55:02;;;;;;;4.90;4.40;;;14.60;65.00;;;;;;4947486;28;20529;-80
2023/12/15 09:57:32;;;;;;;4.40;3.97;;;14.60;65.60;;;;;;4950285;29;20448;-81
2023/12/15 10:00:00;;;;;;;4.07;3.50;;;14.70;65.20;;;;;;4947730;28;20551;-80
2023/12/15 10:02:30;;;;;;;5.10;3.73;;;14.70;65.00;;;;;;4950656;28;20879;-85
2023/12/15 10:04:58;;;;;;;3.73;3.43;;;14.80;64.80;;;;;;4950531;29;21302;-82
2023/12/15 10:07:26;;;;;;;4.10;3.20;;;14.90;65.00;;;;;;4947426;28;20460;-82
2023/12/15 10:09:54;;;;;;;2.60;2.40;;;15.00;64.80;;;;;;4948846;28;20458;-81
2023/12/15 10:12:22;;;;;;;5.27;2.77;;;14.90;64.80;;;;;;4950925;28;20456;-82
2023/12/15 10:14:51;;;;;;;3.07;2.77;;;15.00;64.90;;;;;;4943881;28;20519;-82
2023/12/15 10:17:20;;;;;;;3.53;3.20;;;15.00;63.90;;;;;;4946237;29;20728;-81
2023/12/15 10:19:50;;;;;;;2.63;2.43;;;15.00;65.20;;;;;;4944756;28;20466;-81
2023/12/15 10:22:18;;;;;;;3.97;3.67;;;15.00;64.80;;;;;;4952276;28;20534;-84
2023/12/15 10:24:46;;;;;;;2.87;2.67;;;15.10;64.70;;;;;;4958962;28;20450;-81
2023/12/15 10:27:15;;;;;;;3.97;3.57;;;15.10;64.10;;;;;;4948255;28;20473;-86
2023/12/15 10:29:44;;;;;;;4.90;4.40;;;14.80;62.80;;;;;;4949990;28;20832;-80
2023/12/15 10:32:11;;;;;;;6.20;5.60;;;14.20;63.80;;;;;;4960715;28;20943;-81
2023/12/15 10:34:39;;;;;;;9.90;6.50;;;13.80;65.40;;;;;;4951263;29;20471;-81
2023/12/15 10:37:09;;;;;;;7.57;6.87;;;13.20;65.00;;;;;;4951322;28;20978;-85
2023/12/15 10:39:37;;;;;;;8.47;7.30;;;12.70;66.90;;;;;;4955839;28;20467;-82
2023/12/15 10:42:07;;;;;;;9.10;6.30;;;12.50;68.20;;;;;;4956930;28;20456;-81
2023/12/15 10:44:36;;;;;;;5.00;4.50;;;12.40;68.50;;;;;;4955747;28;20466;-81
2023/12/15 10:47:06;;;;;;;5.53;5.03;;;12.40;68.70;;;;;;4955637;28;20452;-82
2023/12/15 10:49:36;;;;;;;4.30;3.90;;;12.40;69.30;;;;;;4951145;28;20460;-82
2023/12/15 10:52:21;;;;;;;4.00;3.60;;;12.50;68.40;;;;;;4947698;28;20574;-79
2023/12/15 10:54:50;;;;;;;3.67;3.37;;;12.70;70.00;;;;;;4950400;28;20546;-83
2023/12/15 10:57:19;;;;;;;2.90;2.67;;;13.10;69.60;;;;;;4949765;28;20483;-85
2023/12/15 10:59:48;;;;;;;4.20;3.43;;;13.70;68.60;;;;;;4952634;28;21252;-83
2023/12/15 11:02:20;;;;;;;2.03;1.93;;;14.20;67.70;;;;;;4951979;28;20462;-78
2023/12/15 11:04:49;;;;;;;2.50;2.30;;;14.60;67.10;;;;;;4952134;28;20447;-83
2023/12/15 11:07:24;;;;;;;4.37;3.57;;;15.00;67.20;;;;;;4954925;28;20506;-83
2023/12/15 11:09:52;;;;;;;2.03;1.83;;;15.50;65.20;;;;;;4952681;28;20477;-78
2023/12/15 11:12:29;;;;;;;3.17;2.97;;;15.70;65.90;;;;;;4954787;28;20448;-78
2023/12/15 11:15:04;;;;;;;3.70;3.40;;;15.90;62.80;;;;;;4955456;28;20486;-80
2023/12/15 11:17:33;;;;;;;5.43;4.93;;;15.80;63.90;;;;;;4954083;28;20478;-83
2023/12/15 11:20:09;;;;;;;5.30;4.80;;;15.40;63.20;;;;;;4954714;28;20471;-78
2023/12/15 11:22:43;;;;;;;5.40;4.57;;;15.20;64.60;;;;;;4951250;28;21317;-79
2023/12/15 11:25:21;;;;;;;4.03;3.63;;;15.10;65.00;;;;;;4954801;28;20530;-79
2023/12/15 11:28:02;;;;;;;3.60;3.30;;;15.20;66.90;;;;;;4957069;28;20459;-83
2023/12/15 11:30:34;;;;;;;3.27;2.97;;;15.50;65.40;;;;;;4952251;28;20842;-78
2023/12/15 11:33:41;;;;;;;3.30;3.00;;;15.80;66.20;;;;;;4952489;28;20494;-79
2023/12/15 11:36:13;;;;;;;2.67;2.47;;;16.10;64.10;;;;;;4953404;28;20558;-79
2023/12/15 11:38:48;;;;;;;3.23;3.00;;;16.30;65.20;;;;;;4958178;28;20443;-82
2023/12/15 11:41:22;;;;;;;3.20;2.40;;;16.50;62.40;;;;;;4951096;28;20451;-79
2023/12/15 11:43:52;;;;;;;2.13;2.03;;;16.50;63.90;;;;;;4953645;28;21009;-78
2023/12/15 11:46:25;;;;;;;3.20;3.00;;;16.60;63.50;;;;;;4952058;28;20474;-79
2023/12/15 11:48:53;;;;;;;3.70;3.40;;;16.70;62.30;;;;;;4952753;28;20459;-79
2023/12/15 11:51:25;;;;;;;2.60;2.40;;;16.60;61.50;;;;;;4954898;28;20459;-79
2023/12/15 11:53:55;;;;;;;2.63;2.43;;;16.60;62.40;;;;;;4949736;28;20463;-82
2023/12/15 11:56:23;;;;;;;2.90;2.70;;;16.70;62.60;;;;;;4953293;28;21030;-82
2023/12/15 11:58:52;;;;;;;2.87;2.67;;;16.60;62.00;;;;;;4957863;28;20463;-79
2023/12/15 12:01:20;;;;;;;3.10;2.90;;;16.60;63.70;;;;;;4948654;29;20480;-82
2023/12/15 12:03:48;;;;;;;4.67;4.13;;;16.50;63.10;;;;;;4935246;28;20535;-81
2023/12/15 12:06:20;;;;;;;2.97;2.50;;;16.60;63.00;;;;;;4938123;28;20518;-84
2023/12/15 12:08:49;;;;;;;2.20;1.47;;;16.70;63.10;;;;;;4934493;28;20456;-85
2023/12/15 12:11:19;;;;;;;2.20;2.00;;;16.60;63.20;;;;;;4936797;28;20539;-81
2023/12/15 12:13:48;;;;;;;3.10;2.90;;;16.80;63.10;;;;;;4938985;28;20460;-83
2023/12/15 12:16:18;;;;;;;4.10;3.67;;;16.90;61.30;;;;;;4936539;28;20496;-82
2023/12/15 12:18:47;;;;;;;3.83;3.53;;;16.40;60.40;;;;;;4937206;28;20550;-83
2023/12/15 12:21:16;;;;;;;4.47;3.77;;;15.50;61.40;;;;;;4948527;28;20452;-80
2023/12/15 12:23:45;;;;;;;5.80;4.13;;;15.00;62.70;;;;;;4948610;29;20456;-79
2023/12/15 12:26:17;;;;;;;5.20;3.73;;;14.50;63.80;;;;;;4944986;29;20447;-79
2023/12/15 12:28:48;;;;;;;3.17;2.77;;;14.30;63.80;;;;;;4965484;28;20551;-79
2023/12/15 12:31:18;;;;;;;4.47;2.83;;;14.10;64.80;;;;;;4945580;28;20459;-80
2023/12/15 12:33:47;;;;;;;3.00;2.70;;;14.40;66.30;;;;;;4965177;28;21203;-81
2023/12/15 12:36:16;;;;;;;3.33;3.03;;;14.90;65.10;;;;;;4937496;28;20478;-87
2023/12/15 12:38:45;;;;;;;3.60;3.30;;;15.20;64.40;;;;;;4939866;28;20464;-83
2023/12/15 12:41:14;;;;;;;2.37;2.00;;;15.30;62.40;;;;;;4938937;28;20459;-80
2023/12/15 12:43:42;;;;;;;3.00;2.80;;;15.30;63.40;;;;;;4939189;28;20550;-80
2023/12/15 12:46:12;;;;;;;2.50;2.13;;;15.10;62.70;;;;;;4941294;28;20448;-82
2023/12/15 12:48:43;;;;;;;2.50;2.30;;;15.00;63.10;;;;;;4943110;28;20957;-79
2023/12/15 12:51:11;;;;;;;2.53;2.33;;;15.10;64.40;;;;;;4938697;28;20459;-79
2023/12/15 12:53:40;;;;;;;2.60;2.40;;;15.20;64.10;;;;;;4941109;28;20459;-81
2023/12/15 12:56:10;;;;;;;2.73;2.50;;;15.20;64.30;;;;;;4940839;28;20945;-79